Time;durP1;ratioP1;P1;durP2;ratioP2;P2;SDS_P1;SDS_P2;PMS_P1;PMS_P2;Temp;Humidity;BMP_temperature;BMP_pressure;BME280_temperature;BME280_humidity;BME280_pressure;Samples;Min_cycle;Max_cycle;Signal;HPM_P1;HPM_P2
2023/11/27 00:02:24;;;;;;;5.70;3.03;;;1.70;99.90;;;;;;5068074;28;20055;-67
2023/11/27 00:04:55;;;;;;;8.27;3.78;;;1.70;99.90;;;;;;5058465;28;20052;-67
2023/11/27 00:07:27;;;;;;;4.28;3.33;;;1.60;99.90;;;;;;5061353;28;20576;-67
2023/11/27 00:09:54;;;;;;;4.63;3.22;;;1.60;99.90;;;;;;5063980;28;20041;-67
2023/11/27 00:12:26;;;;;;;5.30;3.28;;;1.60;99.90;;;;;;5060564;28;20045;-67
2023/11/27 00:14:58;;;;;;;3.63;2.80;;;1.60;99.90;;;;;;5062330;28;20492;-67
2023/11/27 00:17:25;;;;;;;5.40;3.35;;;1.50;99.90;;;;;;5052507;28;20287;-67
2023/11/27 00:19:57;;;;;;;6.95;3.35;;;1.50;99.90;;;;;;5056037;28;20037;-67
2023/11/27 00:22:29;;;;;;;4.95;3.83;;;1.50;99.90;;;;;;5049685;28;20036;-66
2023/11/27 00:25:01;;;;;;;5.10;3.55;;;1.50;99.90;;;;;;5047985;28;20063;-67
2023/11/27 00:27:28;;;;;;;7.45;4.32;;;1.50;99.90;;;;;;5047624;28;20065;-67
2023/11/27 00:30:00;;;;;;;5.38;3.35;;;1.50;99.90;;;;;;5052533;28;20044;-66
2023/11/27 00:32:27;;;;;;;5.95;4.32;;;1.50;99.90;;;;;;5060382;28;20115;-66
2023/11/27 00:34:59;;;;;;;12.23;4.82;;;1.50;99.90;;;;;;5046580;28;20543;-67
2023/11/27 00:37:31;;;;;;;7.22;4.57;;;1.40;99.90;;;;;;5032515;28;20049;-66
2023/11/27 00:40:03;;;;;;;7.63;4.25;;;1.40;99.90;;;;;;5059356;28;20066;-67
2023/11/27 00:42:35;;;;;;;6.15;4.07;;;1.40;99.90;;;;;;5059041;28;20483;-67
2023/11/27 00:45:08;;;;;;;8.70;4.70;;;1.40;99.90;;;;;;5075407;28;20052;-67
2023/11/27 00:47:35;;;;;;;4.53;3.72;;;1.40;99.90;;;;;;5061213;28;20040;-67
2023/11/27 00:50:07;;;;;;;7.22;4.85;;;1.40;99.90;;;;;;5054718;28;20047;-67
2023/11/27 00:52:41;;;;;;;7.10;4.30;;;1.40;99.90;;;;;;5037750;28;20106;-67
2023/11/27 00:55:13;;;;;;;7.25;4.60;;;1.40;99.90;;;;;;5052114;28;20386;-66
2023/11/27 00:57:45;;;;;;;6.22;4.05;;;1.40;99.90;;;;;;5063183;28;20047;-67
2023/11/27 01:00:17;;;;;;;5.60;3.83;;;1.30;99.90;;;;;;5051409;28;20040;-67
2023/11/27 01:02:45;;;;;;;7.30;4.80;;;1.30;99.90;;;;;;5033116;28;20125;-67
2023/11/27 01:05:17;;;;;;;4.93;4.00;;;1.30;99.90;;;;;;5053559;28;20041;-67
2023/11/27 01:07:44;;;;;;;7.07;4.20;;;1.30;99.90;;;;;;5059991;28;20411;-67
2023/11/27 01:10:17;;;;;;;6.28;4.00;;;1.30;99.90;;;;;;5057538;28;20045;-67
2023/11/27 01:12:49;;;;;;;4.75;3.70;;;1.40;99.90;;;;;;5074153;28;20407;-66
2023/11/27 01:15:21;;;;;;;6.32;4.30;;;1.40;99.90;;;;;;5059118;28;20049;-67
2023/11/27 01:17:53;;;;;;;7.07;4.35;;;1.30;99.90;;;;;;5040975;28;20518;-67
2023/11/27 01:20:25;;;;;;;6.35;4.43;;;1.30;99.90;;;;;;5055460;28;20051;-66
2023/11/27 01:22:58;;;;;;;8.10;4.10;;;1.30;99.90;;;;;;5063631;28;20091;-67
2023/11/27 01:25:30;;;;;;;6.25;4.60;;;1.30;99.90;;;;;;5039157;28;20042;-66
2023/11/27 01:28:02;;;;;;;8.25;4.22;;;1.30;99.90;;;;;;5056749;28;20048;-67
2023/11/27 01:30:34;;;;;;;6.32;4.57;;;1.40;99.90;;;;;;5043356;28;20106;-67
2023/11/27 01:33:07;;;;;;;7.35;4.10;;;1.40;99.90;;;;;;5059303;28;20131;-67
2023/11/27 01:35:38;;;;;;;6.90;4.68;;;1.40;99.90;;;;;;5053357;28;20052;-67
2023/11/27 01:38:10;;;;;;;5.97;4.60;;;1.40;99.90;;;;;;5054804;28;20078;-67
2023/11/27 01:40:42;;;;;;;5.43;3.88;;;1.40;99.90;;;;;;5057948;28;20039;-66
2023/11/27 01:43:14;;;;;;;7.47;4.45;;;1.40;99.90;;;;;;5071595;28;20071;-67
2023/11/27 01:45:42;;;;;;;7.43;4.60;;;1.40;99.90;;;;;;5057591;28;20041;-67
2023/11/27 01:48:14;;;;;;;7.70;4.53;;;1.40;99.90;;;;;;5074559;28;20048;-67
2023/11/27 01:50:45;;;;;;;5.38;4.40;;;1.40;99.90;;;;;;5052942;28;20040;-67
2023/11/27 01:53:17;;;;;;;7.55;5.20;;;1.40;99.90;;;;;;5065042;28;20050;-67
2023/11/27 01:55:45;;;;;;;7.65;4.85;;;1.40;99.90;;;;;;5055083;28;20033;-67
2023/11/27 01:58:17;;;;;;;8.13;4.57;;;1.30;99.90;;;;;;5050030;28;20539;-66
2023/11/27 02:00:49;;;;;;;7.38;5.25;;;1.40;99.90;;;;;;5043693;28;20047;-67
2023/11/27 02:03:21;;;;;;;8.30;4.63;;;1.30;99.90;;;;;;5049068;28;20045;-67
2023/11/27 02:05:53;;;;;;;8.98;5.20;;;1.30;99.90;;;;;;5036120;28;20136;-67
2023/11/27 02:08:20;;;;;;;6.18;5.07;;;1.30;99.90;;;;;;5063528;28;20041;-67
2023/11/27 02:10:52;;;;;;;9.10;5.93;;;1.30;99.90;;;;;;5053061;28;20059;-67
2023/11/27 02:13:19;;;;;;;7.53;5.07;;;1.30;99.90;;;;;;5055187;28;20037;-66
2023/11/27 02:15:52;;;;;;;8.82;5.40;;;1.30;99.90;;;;;;5059398;28;20386;-67
2023/11/27 02:18:24;;;;;;;7.28;4.07;;;1.40;99.90;;;;;;5042762;28;20041;-67
2023/11/27 02:20:51;;;;;;;7.32;5.18;;;1.40;99.90;;;;;;5054902;28;20505;-67
2023/11/27 02:23:23;;;;;;;6.88;4.85;;;1.40;99.90;;;;;;5054228;28;20044;-67
2023/11/27 02:25:50;;;;;;;8.02;4.47;;;1.40;99.90;;;;;;5046384;28;20036;-67
2023/11/27 02:28:22;;;;;;;5.90;4.35;;;1.40;99.90;;;;;;5063206;28;20168;-67
2023/11/27 02:30:49;;;;;;;7.43;4.43;;;1.40;99.90;;;;;;5049647;28;20382;-67
2023/11/27 02:33:21;;;;;;;7.35;4.38;;;1.40;99.90;;;;;;5053959;28;20056;-67
2023/11/27 02:35:53;;;;;;;6.47;4.65;;;1.50;99.90;;;;;;5047837;28;20039;-67
2023/11/27 02:38:25;;;;;;;7.82;4.10;;;1.50;99.90;;;;;;5065796;28;20428;-67
2023/11/27 02:40:52;;;;;;;7.38;4.75;;;1.50;99.90;;;;;;5054727;28;20068;-67
2023/11/27 02:43:24;;;;;;;7.28;4.32;;;1.50;99.90;;;;;;5050591;28;20044;-67
2023/11/27 02:45:56;;;;;;;7.63;4.68;;;1.50;99.90;;;;;;5048557;28;20532;-66
2023/11/27 02:48:28;;;;;;;6.50;4.18;;;1.40;99.90;;;;;;5060027;28;20040;-66
2023/11/27 02:51:00;;;;;;;6.45;4.03;;;1.40;99.90;;;;;;5045456;28;20123;-67
2023/11/27 02:53:32;;;;;;;6.40;3.83;;;1.40;99.90;;;;;;5052331;28;20203;-67
2023/11/27 02:56:05;;;;;;;6.30;3.67;;;1.40;99.90;;;;;;5036367;28;20408;-67
2023/11/27 02:58:38;;;;;;;5.75;3.75;;;1.40;99.90;;;;;;5067098;28;20052;-67
2023/11/27 03:01:10;;;;;;;5.20;3.53;;;1.40;99.90;;;;;;5048931;28;20037;-67
2023/11/27 03:03:42;;;;;;;5.22;3.45;;;1.40;99.90;;;;;;5048822;28;20049;-67
2023/11/27 03:06:14;;;;;;;4.38;3.15;;;1.40;99.90;;;;;;5066817;28;20052;-67
2023/11/27 03:08:45;;;;;;;5.88;3.17;;;1.40;99.90;;;;;;5052586;28;20041;-67
2023/11/27 03:11:18;;;;;;;4.55;3.13;;;1.40;99.90;;;;;;5050749;28;20051;-67
2023/11/27 03:13:49;;;;;;;3.88;2.97;;;1.30;99.90;;;;;;5062420;28;20378;-67
2023/11/27 03:16:21;;;;;;;4.70;3.13;;;1.30;99.90;;;;;;5046535;28;20049;-66
2023/11/27 03:18:53;;;;;;;6.70;3.50;;;1.30;99.90;;;;;;5061030;28;20037;-66
2023/11/27 03:21:26;;;;;;;4.07;2.85;;;1.20;99.90;;;;;;5059880;28;20047;-67
2023/11/27 03:23:58;;;;;;;5.30;3.25;;;1.20;99.90;;;;;;5059714;28;20044;-66
2023/11/27 03:26:24;;;;;;;4.53;2.92;;;1.20;99.90;;;;;;5054780;28;20120;-67
2023/11/27 03:28:51;;;;;;;3.65;2.60;;;1.20;99.90;;;;;;5054859;28;20520;-67
2023/11/27 03:31:23;;;;;;;4.30;3.00;;;1.10;99.90;;;;;;5060181;28;20040;-67
2023/11/27 03:33:51;;;;;;;3.92;3.05;;;1.10;99.90;;;;;;5050636;28;20029;-67
2023/11/27 03:36:18;;;;;;;4.35;3.13;;;1.10;99.90;;;;;;5053955;28;20496;-67
2023/11/27 03:38:50;;;;;;;5.25;2.97;;;1.10;99.90;;;;;;5031898;28;20046;-66
2023/11/27 03:41:22;;;;;;;2.90;2.30;;;1.10;99.90;;;;;;5058408;28;20594;-67
2023/11/27 03:43:49;;;;;;;7.03;3.45;;;1.00;99.90;;;;;;5061548;28;20041;-67
2023/11/27 03:46:21;;;;;;;3.92;2.47;;;1.00;99.90;;;;;;5060000;28;20072;-67
2023/11/27 03:48:53;;;;;;;4.30;2.63;;;1.00;99.90;;;;;;5062996;28;20041;-67
2023/11/27 03:51:26;;;;;;;3.38;2.25;;;0.90;99.90;;;;;;5054211;28;20126;-67
2023/11/27 03:53:57;;;;;;;2.88;2.33;;;0.90;99.90;;;;;;5041054;28;20044;-66
2023/11/27 03:56:24;;;;;;;3.38;2.40;;;0.90;99.90;;;;;;5064156;28;20032;-67
2023/11/27 03:58:56;;;;;;;3.10;2.20;;;0.90;99.90;;;;;;5052075;28;20504;-67
2023/11/27 04:01:28;;;;;;;3.97;2.35;;;0.90;99.90;;;;;;5052642;28;20134;-66
2023/11/27 04:04:00;;;;;;;5.40;2.72;;;0.90;99.90;;;;;;5052394;28;20049;-67
2023/11/27 04:06:32;;;;;;;3.95;1.88;;;0.90;99.90;;;;;;5061332;28;20048;-66
2023/11/27 04:09:04;;;;;;;6.80;2.25;;;0.90;99.90;;;;;;5052264;28;20059;-67
2023/11/27 04:11:36;;;;;;;3.67;2.15;;;0.90;99.90;;;;;;5052721;28;20048;-67
2023/11/27 04:14:09;;;;;;;3.60;2.20;;;0.80;99.90;;;;;;5056564;28;20033;-67
2023/11/27 04:16:41;;;;;;;5.60;2.85;;;0.80;99.90;;;;;;5061138;28;20528;-67
2023/11/27 04:19:13;;;;;;;4.07;2.40;;;0.80;99.90;;;;;;5061846;28;20044;-66
2023/11/27 04:21:45;;;;;;;6.22;2.55;;;0.80;99.90;;;;;;5062444;28;20033;-67
2023/11/27 04:24:17;;;;;;;9.85;4.20;;;0.80;99.90;;;;;;5071274;28;20128;-67
2023/11/27 04:26:49;;;;;;;3.95;2.33;;;0.90;99.90;;;;;;5026975;28;20624;-67
2023/11/27 04:29:16;;;;;;;3.55;2.08;;;0.90;99.90;;;;;;5059259;28;20051;-67
2023/11/27 04:31:48;;;;;;;17.85;6.53;;;1.00;99.90;;;;;;5054122;28;20157;-67
2023/11/27 04:34:20;;;;;;;7.78;3.42;;;1.00;99.90;;;;;;5053673;28;20041;-66
2023/11/27 04:36:48;;;;;;;8.68;4.15;;;1.00;99.90;;;;;;5049240;28;20037;-67
2023/11/27 04:39:23;;;;;;;14.63;7.03;;;1.00;99.90;;;;;;5068337;28;20041;-66
2023/11/27 04:41:54;;;;;;;37.25;14.30;;;1.00;99.90;;;;;;5060914;28;20041;-67
2023/11/27 04:44:26;;;;;;;21.50;6.43;;;1.00;99.90;;;;;;5057255;28;20075;-67
2023/11/27 04:46:58;;;;;;;50.17;15.43;;;1.00;99.90;;;;;;5060658;28;20055;-66
2023/11/27 04:49:30;;;;;;;21.35;8.13;;;1.00;99.90;;;;;;5058724;28;20041;-67
2023/11/27 04:51:57;;;;;;;50.83;16.73;;;1.00;99.90;;;;;;5059210;28;20047;-66
2023/11/27 04:54:30;;;;;;;18.85;7.20;;;1.00;99.90;;;;;;5056304;28;20493;-67
2023/11/27 04:57:03;;;;;;;8.35;3.80;;;1.00;99.90;;;;;;5061868;28;20391;-67
2023/11/27 04:59:35;;;;;;;6.30;2.20;;;1.10;99.90;;;;;;5047575;28;20059;-67
2023/11/27 05:02:07;;;;;;;3.17;1.77;;;1.10;99.90;;;;;;5030038;28;20464;-67
2023/11/27 05:04:39;;;;;;;3.80;1.70;;;1.10;99.90;;;;;;5050726;28;20053;-68
2023/11/27 05:07:11;;;;;;;2.85;1.70;;;1.10;99.90;;;;;;5051900;28;20529;-67
2023/11/27 05:09:42;;;;;;;2.50;1.70;;;1.10;99.90;;;;;;5051201;28;20044;-67
2023/11/27 05:12:09;;;;;;;2.53;1.40;;;1.00;99.90;;;;;;5057377;28;20083;-66
2023/11/27 05:14:42;;;;;;;3.05;1.48;;;1.10;99.90;;;;;;5059081;28;20056;-66
2023/11/27 05:17:13;;;;;;;2.17;1.48;;;1.10;99.90;;;;;;5060994;28;20044;-66
2023/11/27 05:19:45;;;;;;;1.88;1.23;;;1.10;99.90;;;;;;5055761;28;20044;-67
2023/11/27 05:22:18;;;;;;;2.63;1.38;;;1.10;99.90;;;;;;5056302;28;20044;-66
2023/11/27 05:24:50;;;;;;;2.10;1.40;;;1.10;99.90;;;;;;5047883;28;20059;-66
2023/11/27 05:27:23;;;;;;;5.10;1.80;;;1.10;99.90;;;;;;5056612;28;20059;-67
2023/11/27 05:29:50;;;;;;;2.42;1.60;;;1.10;99.90;;;;;;5055587;28;20116;-67
2023/11/27 05:32:22;;;;;;;2.58;1.55;;;1.10;99.90;;;;;;5054430;28;20043;-67
2023/11/27 05:34:49;;;;;;;2.17;1.60;;;1.10;99.90;;;;;;5069273;28;20402;-67
2023/11/27 05:37:21;;;;;;;4.28;1.38;;;1.00;99.90;;;;;;5045202;28;20133;-67
2023/11/27 05:39:52;;;;;;;3.85;1.48;;;1.00;99.90;;;;;;5053541;28;20040;-66
2023/11/27 05:42:27;;;;;;;2.63;1.42;;;1.00;99.90;;;;;;5049586;28;20068;-67
2023/11/27 05:44:59;;;;;;;2.17;1.45;;;0.90;99.90;;;;;;5053364;28;20123;-66
2023/11/27 05:47:31;;;;;;;2.67;1.13;;;0.90;99.90;;;;;;5059044;28;20052;-66
2023/11/27 05:50:04;;;;;;;1.80;1.20;;;0.90;99.90;;;;;;5055833;28;21043;-66
2023/11/27 05:52:36;;;;;;;1.35;1.25;;;0.80;99.90;;;;;;5060401;28;20625;-67
2023/11/27 05:55:08;;;;;;;6.40;5.28;;;0.80;99.90;;;;;;5056506;28;20127;-66
2023/11/27 05:57:40;;;;;;;2.20;1.50;;;0.70;99.90;;;;;;5054762;28;20038;-67
2023/11/27 06:00:13;;;;;;;2.50;1.30;;;0.70;99.90;;;;;;5047982;28;20041;-66
2023/11/27 06:02:40;;;;;;;1.35;1.17;;;0.70;99.90;;;;;;5067390;28;20036;-67
2023/11/27 06:05:12;;;;;;;1.67;1.23;;;0.70;99.90;;;;;;5048653;28;20053;-67
2023/11/27 06:07:45;;;;;;;2.70;1.15;;;0.70;99.90;;;;;;5053344;28;20048;-66
2023/11/27 06:10:17;;;;;;;;;;;0.70;99.90;;;;;;5062028;28;20045;-66
2023/11/27 06:12:50;;;;;;;1.75;1.38;;;0.80;99.90;;;;;;5054422;28;19927;-66
2023/11/27 06:15:22;;;;;;;1.90;1.38;;;0.80;99.90;;;;;;5080305;28;20054;-67
2023/11/27 06:17:49;;;;;;;3.95;1.10;;;0.80;99.90;;;;;;5062618;28;20493;-66
2023/11/27 06:20:20;;;;;;;2.38;1.40;;;0.70;99.90;;;;;;5062655;28;20076;-67
2023/11/27 06:22:47;;;;;;;1.95;1.17;;;0.70;99.90;;;;;;5061718;28;20131;-67
2023/11/27 06:25:19;;;;;;;2.42;1.40;;;0.70;99.90;;;;;;5057558;28;20051;-67
2023/11/27 06:27:51;;;;;;;2.08;1.50;;;0.60;99.90;;;;;;5061671;28;20045;-66
2023/11/27 06:30:23;;;;;;;3.22;1.70;;;0.60;99.90;;;;;;5065102;28;20208;-66
2023/11/27 06:32:55;;;;;;;1.60;1.00;;;0.60;99.90;;;;;;5067176;28;20051;-67
2023/11/27 06:35:27;;;;;;;1.40;1.10;;;0.60;99.90;;;;;;5068401;28;20042;-66
2023/11/27 06:37:59;;;;;;;1.27;1.00;;;0.60;99.90;;;;;;5045992;28;20036;-66
2023/11/27 06:40:31;;;;;;;1.98;1.17;;;0.60;99.90;;;;;;5050930;28;20131;-66
2023/11/27 06:43:03;;;;;;;2.55;1.33;;;0.50;99.90;;;;;;5055791;28;20043;-66
2023/11/27 06:45:35;;;;;;;1.50;1.30;;;0.50;99.90;;;;;;5065145;28;20062;-66
2023/11/27 06:48:08;;;;;;;4.45;1.30;;;0.40;99.90;;;;;;5055524;28;20043;-67
2023/11/27 06:50:40;;;;;;;4.22;1.70;;;0.40;99.90;;;;;;5060786;28;20055;-66
2023/11/27 06:53:12;;;;;;;2.25;1.30;;;0.40;99.90;;;;;;5062277;28;20068;-66
2023/11/27 06:55:44;;;;;;;1.77;1.05;;;0.50;99.90;;;;;;5059990;28;20043;-66
2023/11/27 06:58:16;;;;;;;2.95;1.40;;;0.50;99.90;;;;;;5057828;28;20509;-65
2023/11/27 07:00:47;;;;;;;1.95;1.13;;;0.40;99.90;;;;;;5037095;28;20052;-66
2023/11/27 07:03:14;;;;;;;1.70;1.48;;;0.40;99.90;;;;;;5053190;28;20095;-67
2023/11/27 07:05:46;;;;;;;1.67;1.10;;;0.50;99.90;;;;;;5051991;28;20048;-67
2023/11/27 07:08:13;;;;;;;2.80;1.30;;;0.50;99.90;;;;;;5069813;28;20496;-66
2023/11/27 07:10:45;;;;;;;3.20;2.42;;;0.50;99.90;;;;;;5055614;28;20048;-66
2023/11/27 07:13:16;;;;;;;4.40;4.00;;;0.50;99.90;;;;;;5052635;28;20045;-67
2023/11/27 07:15:49;;;;;;;4.70;3.00;;;0.40;99.90;;;;;;5053731;28;20044;-67
2023/11/27 07:18:21;;;;;;;3.83;3.20;;;0.50;99.90;;;;;;5051561;28;20043;-68
2023/11/27 07:20:53;;;;;;;3.13;2.15;;;0.50;99.90;;;;;;5056844;28;20047;-67
2023/11/27 07:23:20;;;;;;;3.45;2.50;;;0.50;99.90;;;;;;5059456;28;20565;-67
2023/11/27 07:25:53;;;;;;;4.17;2.07;;;0.60;99.90;;;;;;5059780;28;20441;-67
2023/11/27 07:28:20;;;;;;;2.95;1.33;;;0.60;99.90;;;;;;5061784;28;20501;-66
2023/11/27 07:30:52;;;;;;;2.20;1.48;;;0.60;99.90;;;;;;5056674;28;20095;-66
2023/11/27 07:33:24;;;;;;;2.45;1.30;;;0.70;99.90;;;;;;5048481;28;20136;-67
2023/11/27 07:35:56;;;;;;;2.22;1.50;;;0.70;99.90;;;;;;5051871;28;20041;-65
2023/11/27 07:38:28;;;;;;;2.20;1.33;;;0.70;99.90;;;;;;5067816;28;20037;-67
2023/11/27 07:41:00;;;;;;;3.05;1.70;;;0.80;99.90;;;;;;5068827;28;20041;-67
2023/11/27 07:43:35;;;;;;;2.22;1.48;;;0.80;99.90;;;;;;5066981;28;20124;-67
2023/11/27 07:46:11;;;;;;;2.92;1.42;;;0.80;99.90;;;;;;5064803;28;20065;-67
2023/11/27 07:48:43;;;;;;;4.72;1.85;;;0.80;99.90;;;;;;5067736;28;20052;-66
2023/11/27 07:51:15;;;;;;;2.40;1.63;;;0.90;99.90;;;;;;5057183;28;20091;-66
2023/11/27 07:53:47;;;;;;;3.75;1.70;;;0.90;99.90;;;;;;5060365;28;20128;-66
2023/11/27 07:56:30;;;;;;;2.75;1.60;;;0.90;99.90;;;;;;5057424;28;20041;-66
2023/11/27 07:59:03;;;;;;;2.60;1.77;;;0.80;99.90;;;;;;5058516;28;20408;-66
2023/11/27 08:01:35;;;;;;;2.75;1.60;;;0.90;99.90;;;;;;5066013;28;20040;-66
2023/11/27 08:04:02;;;;;;;2.42;1.75;;;0.90;99.90;;;;;;5068119;28;20513;-66
2023/11/27 08:06:29;;;;;;;4.57;1.83;;;0.90;99.90;;;;;;5056927;28;20123;-67
2023/11/27 08:09:01;;;;;;;2.78;1.50;;;1.00;99.90;;;;;;5054035;28;20151;-67
2023/11/27 08:11:34;;;;;;;3.40;1.52;;;1.00;99.90;;;;;;5057950;28;20754;-66
2023/11/27 08:14:06;;;;;;;2.20;1.47;;;1.00;99.90;;;;;;5055123;28;20049;-66
2023/11/27 08:16:38;;;;;;;1.65;1.20;;;1.10;99.90;;;;;;5069088;28;20045;-66
2023/11/27 08:19:13;;;;;;;2.17;1.20;;;1.10;99.90;;;;;;5033506;28;20749;-67
2023/11/27 08:21:45;;;;;;;2.80;1.42;;;1.20;99.90;;;;;;5066850;28;20047;-67
2023/11/27 08:24:15;;;;;;;3.08;1.30;;;1.40;99.90;;;;;;5060768;28;20132;-67
2023/11/27 08:26:49;;;;;;;1.13;0.95;;;1.40;99.90;;;;;;5053758;28;20576;-66
2023/11/27 08:29:21;;;;;;;2.33;1.10;;;1.50;99.90;;;;;;5059197;28;20049;-66
2023/11/27 08:31:53;;;;;;;1.77;1.33;;;1.50;99.90;;;;;;5060958;28;20091;-66
2023/11/27 08:34:25;;;;;;;1.38;1.05;;;1.60;99.90;;;;;;5045467;28;20154;-67
2023/11/27 08:36:59;;;;;;;1.92;1.35;;;1.60;99.90;;;;;;5057932;28;20033;-66
2023/11/27 08:39:31;;;;;;;2.03;1.63;;;1.60;99.90;;;;;;5071137;28;20515;-66
2023/11/27 08:42:06;;;;;;;2.42;1.40;;;1.60;99.90;;;;;;5042933;28;20038;-67
2023/11/27 08:44:37;;;;;;;2.63;1.60;;;1.70;99.90;;;;;;5028019;28;20095;-66
2023/11/27 08:47:09;;;;;;;2.38;1.52;;;1.80;99.90;;;;;;5051313;28;20033;-67
2023/11/27 08:49:41;;;;;;;3.70;1.80;;;1.80;99.90;;;;;;5044499;28;20527;-66
2023/11/27 08:52:13;;;;;;;3.10;1.55;;;1.90;99.90;;;;;;5057219;28;20044;-67
2023/11/27 08:54:40;;;;;;;3.47;1.58;;;1.90;99.90;;;;;;5054281;28;20051;-67
2023/11/27 08:57:12;;;;;;;3.05;1.75;;;2.00;99.90;;;;;;5047217;28;20044;-67
2023/11/27 08:59:44;;;;;;;3.50;2.08;;;1.90;99.90;;;;;;5055431;28;20040;-67
2023/11/27 09:02:16;;;;;;;1.83;1.50;;;2.00;99.90;;;;;;5057755;28;20041;-67
2023/11/27 09:04:49;;;;;;;1.80;1.48;;;2.00;99.90;;;;;;5056750;28;20075;-67
2023/11/27 09:07:21;;;;;;;3.35;1.95;;;2.10;99.90;;;;;;5068699;28;20055;-67
2023/11/27 09:09:53;;;;;;;3.25;1.67;;;2.10;99.90;;;;;;5051850;28;20043;-67
2023/11/27 09:12:25;;;;;;;2.58;1.60;;;2.10;99.90;;;;;;5055408;28;20048;-67
2023/11/27 09:14:57;;;;;;;2.08;1.45;;;2.10;99.90;;;;;;5070978;28;20512;-67
2023/11/27 09:17:29;;;;;;;2.80;1.70;;;2.20;99.90;;;;;;5068749;28;20041;-67
2023/11/27 09:19:56;;;;;;;3.85;1.70;;;2.20;99.90;;;;;;5067032;28;20072;-67
2023/11/27 09:22:28;;;;;;;3.75;1.88;;;2.20;99.90;;;;;;5061541;28;20711;-67
2023/11/27 09:25:00;;;;;;;1.98;1.38;;;2.20;99.90;;;;;;5058383;28;20037;-67
2023/11/27 09:27:32;;;;;;;2.75;1.50;;;2.20;99.90;;;;;;5036022;28;20581;-67
2023/11/27 09:30:06;;;;;;;2.40;1.45;;;2.30;99.90;;;;;;5063414;28;20052;-67
2023/11/27 09:32:39;;;;;;;2.42;1.88;;;2.30;99.90;;;;;;5047555;28;20053;-67
2023/11/27 09:35:12;;;;;;;2.17;1.55;;;2.30;99.90;;;;;;5065245;28;20040;-67
2023/11/27 09:37:44;;;;;;;3.25;2.17;;;2.30;99.90;;;;;;5054289;28;20048;-67
2023/11/27 09:40:12;;;;;;;2.92;1.52;;;2.30;99.90;;;;;;5053515;28;20053;-67
2023/11/27 09:42:44;;;;;;;3.40;1.90;;;2.30;99.90;;;;;;5052011;28;20037;-67
2023/11/27 09:45:16;;;;;;;5.75;2.28;;;2.30;99.90;;;;;;5051243;28;20045;-67
2023/11/27 09:47:49;;;;;;;3.42;1.60;;;2.40;99.90;;;;;;5054300;28;20128;-67
2023/11/27 09:50:21;;;;;;;2.97;1.77;;;2.40;99.90;;;;;;5055744;28;20057;-67
2023/11/27 09:53:07;;;;;;;4.97;2.42;;;2.40;99.90;;;;;;5053402;28;20039;-67
2023/11/27 09:55:35;;;;;;;2.75;1.50;;;2.40;99.90;;;;;;5058785;28;20131;-67
2023/11/27 09:58:10;;;;;;;2.15;1.90;;;2.50;99.90;;;;;;5061001;28;20041;-67
2023/11/27 10:00:43;;;;;;;4.95;2.15;;;2.50;99.90;;;;;;5060898;28;20075;-67
2023/11/27 10:03:15;;;;;;;3.10;1.70;;;2.50;99.90;;;;;;5056262;28;20513;-67
2023/11/27 10:05:49;;;;;;;4.18;2.15;;;2.50;99.90;;;;;;5056653;28;20047;-67
2023/11/27 10:08:21;;;;;;;3.10;1.80;;;2.50;99.90;;;;;;5067242;28;20409;-67
2023/11/27 10:10:56;;;;;;;3.10;1.90;;;2.60;99.90;;;;;;5063954;28;20048;-67
2023/11/27 10:13:35;;;;;;;3.47;2.10;;;2.60;99.90;;;;;;5052558;28;20045;-67
2023/11/27 10:16:05;;;;;;;2.15;1.65;;;2.60;99.90;;;;;;5051944;28;20072;-66
2023/11/27 10:18:37;;;;;;;3.58;2.10;;;2.70;99.90;;;;;;5052438;28;20579;-66
2023/11/27 10:21:14;;;;;;;3.80;2.30;;;2.70;99.90;;;;;;5058930;28;20029;-67
2023/11/27 10:23:46;;;;;;;3.35;2.03;;;2.80;99.90;;;;;;5055820;28;20033;-66
2023/11/27 10:26:20;;;;;;;5.00;2.55;;;2.90;99.90;;;;;;5057224;28;20067;-67
2023/11/27 10:28:52;;;;;;;3.03;1.80;;;2.80;99.90;;;;;;5051390;28;20127;-66
2023/11/27 10:31:26;;;;;;;3.17;1.88;;;2.80;99.90;;;;;;5057308;28;20508;-66
2023/11/27 10:33:58;;;;;;;3.92;2.17;;;2.80;99.90;;;;;;5055455;28;20053;-65
2023/11/27 10:36:30;;;;;;;2.75;2.05;;;2.80;99.90;;;;;;5054728;28;20036;-67
2023/11/27 10:39:15;;;;;;;3.13;2.25;;;2.80;99.90;;;;;;5065820;28;20036;-66
2023/11/27 10:41:47;;;;;;;4.05;2.22;;;2.80;99.90;;;;;;5052904;28;20047;-67
2023/11/27 10:44:15;;;;;;;5.70;2.20;;;2.90;99.90;;;;;;5051663;28;20036;-66
2023/11/27 10:46:50;;;;;;;3.70;2.45;;;2.90;99.90;;;;;;5061646;28;20040;-66
2023/11/27 10:49:17;;;;;;;4.47;2.42;;;2.90;99.90;;;;;;5058351;28;20102;-67
2023/11/27 10:51:52;;;;;;;2.90;2.00;;;3.00;99.90;;;;;;5062935;28;20060;-67
2023/11/27 10:54:23;;;;;;;3.60;2.47;;;3.00;99.90;;;;;;5050254;28;20116;-66
2023/11/27 10:56:58;;;;;;;3.83;2.60;;;3.10;99.90;;;;;;5058977;28;20043;-67
2023/11/27 10:59:34;;;;;;;3.80;2.42;;;3.10;99.90;;;;;;5054855;28;20040;-66
2023/11/27 11:02:08;;;;;;;3.83;2.45;;;3.10;99.90;;;;;;5044424;28;20040;-67
2023/11/27 11:04:46;;;;;;;3.83;2.58;;;3.10;99.90;;;;;;5055615;28;20041;-67
2023/11/27 11:07:38;;;;;;;3.80;2.67;;;3.10;99.90;;;;;;5061581;28;20390;-66
2023/11/27 11:10:11;;;;;;;2.85;2.08;;;3.10;99.90;;;;;;5065186;28;20044;-67
2023/11/27 11:12:45;;;;;;;3.38;2.20;;;3.20;99.90;;;;;;5060095;28;20630;-67
2023/11/27 11:15:20;;;;;;;;;;;3.20;99.90;;;;;;5065578;28;20037;-67
2023/11/27 11:18:07;;;;;;;4.85;2.47;;;3.20;99.90;;;;;;5063658;28;20019;-67
2023/11/27 11:21:17;;;;;;;4.15;2.60;;;3.30;99.90;;;;;;5057179;28;20055;-67
2023/11/27 11:24:08;;;;;;;4.53;2.30;;;3.30;99.90;;;;;;5053054;28;20064;-67
2023/11/27 11:26:51;;;;;;;4.80;3.00;;;3.40;99.90;;;;;;5055336;28;20079;-67
2023/11/27 11:29:26;;;;;;;3.90;2.60;;;3.50;99.90;;;;;;5077536;28;20131;-66
2023/11/27 11:32:05;;;;;;;3.47;2.50;;;3.60;99.90;;;;;;5058567;28;20087;-66
2023/11/27 11:34:41;;;;;;;4.70;2.67;;;3.70;99.90;;;;;;5062224;28;20143;-66
2023/11/27 11:37:15;;;;;;;3.95;2.78;;;3.80;99.90;;;;;;5077098;28;20068;-67
2023/11/27 11:39:53;;;;;;;3.78;2.30;;;3.80;99.90;;;;;;5059942;28;20045;-66
2023/11/27 11:42:32;;;;;;;5.43;2.40;;;3.80;99.90;;;;;;5070513;28;20041;-66
2023/11/27 11:45:25;;;;;;;3.55;2.63;;;3.90;99.90;;;;;;5071924;28;20102;-66
2023/11/27 11:47:59;;;;;;;3.15;2.53;;;4.00;99.90;;;;;;5067064;28;20049;-67
2023/11/27 11:50:31;;;;;;;3.72;2.22;;;4.10;99.90;;;;;;5055517;28;20511;-67
2023/11/27 11:53:21;;;;;;;3.72;2.40;;;4.10;99.90;;;;;;5057081;28;20041;-67
2023/11/27 11:55:53;;;;;;;5.18;2.28;;;4.00;99.90;;;;;;5055226;28;20041;-66
2023/11/27 11:58:27;;;;;;;3.60;2.35;;;4.00;99.90;;;;;;5067685;28;20037;-66
2023/11/27 12:01:02;;;;;;;5.20;3.28;;;3.90;99.90;;;;;;5056832;28;20107;-66
2023/11/27 12:03:35;;;;;;;5.05;2.80;;;4.00;99.90;;;;;;5059794;28;20048;-66
2023/11/27 12:06:13;;;;;;;3.67;2.50;;;4.00;99.90;;;;;;5059940;28;20041;-66
2023/11/27 12:08:45;;;;;;;5.07;2.75;;;3.90;99.90;;;;;;5060136;28;20051;-67
2023/11/27 12:11:17;;;;;;;4.07;2.38;;;4.00;99.90;;;;;;5055055;28;20052;-66
2023/11/27 12:13:44;;;;;;;2.47;1.70;;;3.90;99.90;;;;;;5054331;28;20124;-67
2023/11/27 12:16:21;;;;;;;2.55;2.15;;;3.90;99.90;;;;;;5068124;28;20079;-67
2023/11/27 12:18:54;;;;;;;3.13;1.95;;;3.90;99.90;;;;;;5073471;28;20040;-67
2023/11/27 12:21:26;;;;;;;5.40;2.00;;;4.00;99.90;;;;;;5070996;28;20036;-66
2023/11/27 12:23:58;;;;;;;3.75;2.20;;;4.00;99.90;;;;;;5042453;28;20046;-64
2023/11/27 12:26:25;;;;;;;5.53;2.20;;;4.00;99.90;;;;;;5059238;28;20136;-67
2023/11/27 12:28:57;;;;;;;2.50;1.80;;;4.00;99.90;;;;;;5051109;28;20037;-66
2023/11/27 12:31:29;;;;;;;3.78;1.85;;;4.00;99.90;;;;;;5059248;28;20123;-67
2023/11/27 12:34:03;;;;;;;3.60;1.92;;;4.00;99.90;;;;;;5053785;28;20044;-66
2023/11/27 12:36:38;;;;;;;3.72;1.80;;;3.90;99.90;;;;;;5051056;28;20040;-67
2023/11/27 12:39:16;;;;;;;3.92;2.53;;;3.80;99.90;;;;;;5059698;28;20037;-66
2023/11/27 12:41:48;;;;;;;3.53;1.90;;;3.80;99.90;;;;;;5052111;28;20055;-66
2023/11/27 12:44:18;;;;;;;2.97;1.65;;;3.80;99.90;;;;;;5054254;28;20128;-66
2023/11/27 12:46:53;;;;;;;3.63;1.90;;;3.80;99.90;;;;;;5046937;28;20041;-66
2023/11/27 12:49:24;;;;;;;2.95;1.92;;;3.70;99.90;;;;;;5038450;28;20137;-66
2023/11/27 12:51:57;;;;;;;2.63;1.85;;;3.80;99.90;;;;;;5054202;28;20123;-66
2023/11/27 12:54:31;;;;;;;3.53;1.90;;;3.80;99.90;;;;;;5045786;28;20048;-66
2023/11/27 12:57:08;;;;;;;3.72;1.65;;;3.80;99.90;;;;;;5052474;28;20036;-66
2023/11/27 12:59:42;;;;;;;2.80;2.15;;;3.80;99.90;;;;;;5052266;28;20534;-66
2023/11/27 13:02:21;;;;;;;2.90;1.58;;;3.90;99.90;;;;;;5049405;28;20087;-66
2023/11/27 13:04:53;;;;;;;3.13;1.98;;;3.90;99.90;;;;;;5052861;28;20051;-66
2023/11/27 13:07:25;;;;;;;2.13;1.60;;;3.90;99.90;;;;;;5069435;28;20582;-66
2023/11/27 13:09:59;;;;;;;3.50;1.80;;;3.90;99.90;;;;;;5056264;28;20523;-66
2023/11/27 13:12:26;;;;;;;3.85;1.83;;;3.90;99.90;;;;;;5060383;28;20135;-67
2023/11/27 13:14:53;;;;;;;3.05;1.70;;;4.00;99.90;;;;;;5058718;28;20098;-67
2023/11/27 13:17:25;;;;;;;2.03;1.45;;;4.00;99.90;;;;;;5052447;28;20040;-66
2023/11/27 13:19:57;;;;;;;2.00;1.30;;;4.00;99.90;;;;;;5070643;28;20032;-66
2023/11/27 13:22:31;;;;;;;2.20;1.42;;;4.00;99.90;;;;;;5058537;28;20420;-66
2023/11/27 13:25:05;;;;;;;2.13;1.38;;;4.00;99.90;;;;;;5061440;28;20041;-66